createdAt,value
2023-04-01T00:01:06.884Z,93122.44
2023-04-01T00:03:34.773Z,93117.38
2023-04-01T00:06:02.320Z,93116.56
2023-04-01T00:08:30.187Z,93113.81
2023-04-01T00:10:58.248Z,93122.34
2023-04-01T00:13:27.390Z,93117.69
2023-04-01T00:15:56.170Z,93117.75
2023-04-01T00:18:23.539Z,93119.28
2023-04-01T00:20:52.984Z,93111.91
2023-04-01T00:23:20.514Z,93103.75
2023-04-01T00:25:49.042Z,93106.13
2023-04-01T00:28:21.034Z,93115.09
2023-04-01T00:30:48.421Z,93112.38
2023-04-01T00:33:15.247Z,93106.19
2023-04-01T00:35:42.958Z,93103.47
2023-04-01T00:38:09.799Z,93102.72
2023-04-01T00:40:39.653Z,93115.91
2023-04-01T00:43:13.664Z,93101.19
2023-04-01T00:45:43.393Z,93108.16
2023-04-01T00:48:21.560Z,93109.69
2023-04-01T00:51:07.392Z,93102.75
2023-04-01T00:53:37.420Z,93098.50
2023-04-01T00:56:12.487Z,93098.91
2023-04-01T00:58:47.467Z,93083.00
2023-04-01T01:01:14.291Z,93097.34
2023-04-01T01:03:41.596Z,93099.63
2023-04-01T01:06:22.931Z,93080.59
2023-04-01T01:09:11.053Z,93083.69
2023-04-01T01:12:04.327Z,93092.28
2023-04-01T01:14:37.875Z,93093.44
2023-04-01T01:17:22.152Z,93091.88
2023-04-01T01:19:51.697Z,93092.63
2023-04-01T01:22:37.224Z,93087.63
2023-04-01T01:25:36.523Z,93090.75
2023-04-01T01:28:27.606Z,93083.38
2023-04-01T01:31:19.284Z,93079.47
2023-04-01T01:34:07.654Z,93079.50
2023-04-01T01:36:38.745Z,93081.84
2023-04-01T01:39:10.841Z,93093.13
2023-04-01T01:41:42.366Z,93090.81
2023-04-01T01:44:13.464Z,93091.63
2023-04-01T01:46:42.421Z,93088.13
2023-04-01T01:49:11.835Z,93093.56
2023-04-01T01:51:40.137Z,93083.88
2023-04-01T01:54:14.385Z,93081.53
2023-04-01T01:56:44.178Z,93074.56
2023-04-01T01:59:12.797Z,93072.59
2023-04-01T02:01:47.655Z,93083.06
2023-04-01T02:04:17.259Z,93078.41
2023-04-01T02:06:54.787Z,93075.31
2023-04-01T02:09:21.997Z,93086.56
2023-04-01T02:11:58.508Z,93084.59
2023-04-01T02:14:30.590Z,93083.41
2023-04-01T02:17:25.116Z,93082.25
2023-04-01T02:19:58.404Z,93074.16
2023-04-01T02:22:32.874Z,93062.91
2023-04-01T02:25:05.769Z,93062.88
2023-04-01T02:27:32.850Z,93072.56
2023-04-01T02:29:59.976Z,93083.03
2023-04-01T02:32:29.500Z,93083.03
2023-04-01T02:34:57.226Z,93074.09
2023-04-01T02:37:24.180Z,93083.03
2023-04-01T02:39:51.124Z,93084.22
2023-04-01T02:42:17.831Z,93085.72
2023-04-01T02:44:44.522Z,93082.25
2023-04-01T02:47:11.181Z,93076.41
2023-04-01T02:49:37.889Z,93087.25
2023-04-01T02:52:04.819Z,93095.03
2023-04-01T02:54:31.486Z,93099.31
2023-04-01T02:56:58.298Z,93092.41
2023-04-01T02:59:25.054Z,93081.50
2023-04-01T03:01:51.773Z,93080.28
2023-04-01T03:04:18.481Z,93086.91
2023-04-01T03:06:45.297Z,93080.31
2023-04-01T03:09:12.356Z,93092.31
2023-04-01T03:11:39.059Z,93089.94
2023-04-01T03:14:06.112Z,93083.00
2023-04-01T03:16:32.863Z,93084.94
2023-04-01T03:19:00.780Z,93075.63
2023-04-01T03:21:27.606Z,93075.66
2023-04-01T03:23:54.367Z,93075.69
2023-04-01T03:26:22.506Z,93082.25
2023-04-01T03:28:49.425Z,93086.94
2023-04-01T03:31:17.206Z,93088.88
2023-04-01T03:33:50.347Z,93094.72
2023-04-01T03:36:17.362Z,93085.41
2023-04-01T03:38:44.259Z,93090.44
2023-04-01T03:41:14.398Z,93087.75
2023-04-01T03:43:41.462Z,93081.13
2023-04-01T03:46:08.250Z,93093.56
2023-04-01T03:48:35.491Z,93085.41
2023-04-01T03:51:02.200Z,93081.13
2023-04-01T03:53:30.602Z,93090.88
2023-04-01T03:55:59.778Z,93088.50
2023-04-01T03:58:26.524Z,93097.44
2023-04-01T04:00:54.289Z,93090.47
2023-04-01T04:03:21.460Z,93083.88
2023-04-01T04:05:49.231Z,93075.75
2023-04-01T04:08:17.984Z,93079.63
2023-04-01T04:10:45.776Z,93078.81
2023-04-01T04:13:12.462Z,93092.38
2023-04-01T04:15:45.864Z,93067.19
2023-04-01T04:18:12.552Z,93085.03
2023-04-01T04:20:52.007Z,93083.88
2023-04-01T04:23:19.578Z,93085.03
2023-04-01T04:26:05.371Z,93052.47
2023-04-01T04:28:32.549Z,93067.94
2023-04-01T04:30:59.971Z,93064.88
2023-04-01T04:33:27.812Z,93063.31
2023-04-01T04:35:57.694Z,93070.69
2023-04-01T04:38:25.165Z,93071.06
2023-04-01T04:40:52.077Z,93082.72
2023-04-01T04:43:19.425Z,93070.31
2023-04-01T04:45:46.943Z,93072.22
2023-04-01T04:48:19.518Z,93074.94
2023-04-01T04:50:50.896Z,93074.16
2023-04-01T04:53:19.816Z,93074.56
2023-04-01T04:55:48.073Z,93067.59
2023-04-01T04:58:38.950Z,93057.13
2023-04-01T05:01:12.058Z,93054.38
2023-04-01T05:03:40.355Z,93061.34
2023-04-01T05:06:09.250Z,93073.00
2023-04-01T05:08:36.073Z,93074.56
2023-04-01T05:11:03.628Z,93074.19
2023-04-01T05:13:33.989Z,93050.50
2023-04-01T05:16:00.657Z,93057.13
2023-04-01T05:18:27.481Z,93059.03
2023-04-01T05:20:55.588Z,93068.72
2023-04-01T05:23:23.561Z,93055.13
2023-04-01T05:25:52.005Z,93053.97
2023-04-01T05:28:18.846Z,93054.75
2023-04-01T05:30:47.654Z,93062.84
2023-04-01T05:33:22.030Z,93062.84
2023-04-01T05:35:48.789Z,93064.41
2023-04-01T05:38:15.782Z,93076.41
2023-04-01T05:40:42.479Z,93064.00
2023-04-01T05:43:09.656Z,93061.28
2023-04-01T05:45:36.543Z,93062.81
2023-04-01T05:48:12.148Z,93068.25
2023-04-01T05:50:42.560Z,93065.94
2023-04-01T05:53:10.818Z,93059.31
2023-04-01T05:55:38.628Z,93058.97
2023-04-01T05:58:06.459Z,93062.84
2023-04-01T06:00:34.308Z,93051.59
2023-04-01T06:03:01.373Z,93058.59
2023-04-01T06:05:31.060Z,93064.00
2023-04-01T06:08:10.585Z,93051.63
2023-04-01T06:10:54.142Z,93058.16
2023-04-01T06:14:01.694Z,93051.13
2023-04-01T06:16:35.440Z,93056.91
2023-04-01T06:19:30.288Z,93045.25
2023-04-01T06:22:16.176Z,93046.09
2023-04-01T06:25:07.700Z,93058.84
2023-04-01T06:27:55.073Z,93047.25
2023-04-01T06:30:54.361Z,93047.28
2023-04-01T06:33:53.593Z,93048.84
2023-04-01T06:36:32.592Z,93044.91
2023-04-01T06:39:05.506Z,93035.97
2023-04-01T06:42:09.365Z,93045.28
2023-04-01T06:44:44.469Z,93041.38
2023-04-01T06:48:11.820Z,93044.16
2023-04-01T06:51:10.835Z,93035.56
2023-04-01T06:54:13.338Z,93039.00
2023-04-01T06:57:06.662Z,93033.22
2023-04-01T06:59:38.187Z,93039.06
2023-04-01T07:02:11.645Z,93033.19
2023-04-01T07:04:45.673Z,93041.69
2023-04-01T07:07:16.799Z,93038.19
2023-04-01T07:10:00.171Z,93028.09
2023-04-01T07:12:55.307Z,93039.34
2023-04-01T07:15:44.514Z,93038.22
2023-04-01T07:18:26.720Z,93045.97
2023-04-01T07:20:54.967Z,93045.53
2023-04-01T07:23:27.247Z,93053.38
2023-04-01T07:26:24.579Z,93044.13
2023-04-01T07:29:06.268Z,93053.09
2023-04-01T07:32:10.902Z,93048.03
2023-04-01T07:34:51.910Z,93063.97
2023-04-01T07:37:39.337Z,93058.50
2023-04-01T07:40:12.090Z,93057.31
2023-04-01T07:43:01.389Z,93068.97
2023-04-01T07:45:55.394Z,93056.53
2023-04-01T07:48:22.210Z,93054.59
2023-04-01T07:51:13.799Z,93061.88
2023-04-01T07:54:03.774Z,93067.66
2023-04-01T07:57:23.125Z,93064.91
2023-04-01T08:00:01.824Z,93064.16
2023-04-01T08:03:03.156Z,93059.50
2023-04-01T08:05:41.850Z,93057.88
2023-04-01T08:08:55.017Z,93069.91
2023-04-01T08:12:22.913Z,93062.84
2023-04-01T08:15:14.767Z,93067.00
2023-04-01T08:17:53.872Z,93061.56
2023-04-01T08:20:29.375Z,93076.34
2023-04-01T08:23:13.521Z,93074.88
2023-04-01T08:26:07.721Z,93079.06
2023-04-01T08:29:03.903Z,93065.41
2023-04-01T08:31:50.247Z,93075.63
2023-04-01T08:34:23.412Z,93081.44
2023-04-01T08:37:01.952Z,93081.81
2023-04-01T08:39:38.229Z,93077.06
2023-04-01T08:42:17.206Z,93084.47
2023-04-01T08:45:26.688Z,93080.16
2023-04-01T08:48:09.472Z,93081.38
2023-04-01T08:51:04.564Z,93080.16
2023-04-01T08:53:55.612Z,93093.28
2023-04-01T08:56:54.656Z,93089.78
2023-04-01T08:59:36.669Z,93090.91
2023-04-01T09:02:54.647Z,93089.31
2023-04-01T09:05:27.214Z,93087.78
2023-04-01T09:08:18.366Z,93079.97
2023-04-01T09:11:03.962Z,93101.13
2023-04-01T09:14:13.925Z,93096.50
2023-04-01T09:16:48.005Z,93094.19
2023-04-01T09:19:23.785Z,93097.34
2023-04-01T09:22:12.887Z,93109.78
2023-04-01T09:24:57.828Z,93108.59
2023-04-01T09:27:44.800Z,93103.88
2023-04-01T09:30:17.864Z,93102.28
2023-04-01T09:32:47.492Z,93101.09
2023-04-01T09:35:26.470Z,93110.16
2023-04-01T09:38:09.866Z,93104.34
2023-04-01T09:40:52.458Z,93105.19
2023-04-01T09:43:54.066Z,93113.25
2023-04-01T09:47:15.454Z,93113.59
2023-04-01T09:50:17.550Z,93115.19
2023-04-01T09:53:02.750Z,93111.66
2023-04-01T09:56:16.462Z,93113.53
2023-04-01T09:59:02.757Z,93108.03
2023-04-01T10:02:28.551Z,93111.56
2023-04-01T10:05:14.630Z,93116.94
2023-04-01T10:08:09.543Z,93126.63
2023-04-01T10:10:39.257Z,93114.91
2023-04-01T10:13:33.829Z,93119.59
2023-04-01T10:16:55.024Z,93119.97
2023-04-01T10:19:46.162Z,93117.97
2023-04-01T10:22:31.446Z,93141.03
2023-04-01T10:25:13.430Z,93137.50
2023-04-01T10:28:11.381Z,93131.25
2023-04-01T10:31:16.378Z,93133.63
2023-04-01T10:34:05.435Z,93137.44
2023-04-01T10:36:49.167Z,93145.16
2023-04-01T10:39:36.410Z,93121.03
2023-04-01T10:43:03.136Z,93132.22
2023-04-01T10:46:32.958Z,93130.06
2023-04-01T10:49:18.514Z,93137.09
2023-04-01T10:52:21.137Z,93126.16
2023-04-01T10:55:37.636Z,93128.38
2023-04-01T10:58:43.812Z,93131.72
2023-04-01T11:02:08.149Z,93118.31
2023-04-01T11:05:21.966Z,93126.41
2023-04-01T11:08:13.203Z,93127.66
2023-04-01T11:11:19.487Z,93132.56
2023-04-01T11:14:05.981Z,93131.66
2023-04-01T11:16:54.291Z,93123.69
2023-04-01T11:19:58.426Z,93131.41
2023-04-01T11:22:51.692Z,93142.84
2023-04-01T11:25:18.304Z,93137.59
2023-04-01T11:28:03.880Z,93148.63
2023-04-01T11:31:13.219Z,93140.47
2023-04-01T11:33:49.389Z,93153.31
2023-04-01T11:36:29.585Z,93148.59
2023-04-01T11:39:22.804Z,93154.16
2023-04-01T11:42:43.825Z,93162.78
2023-04-01T11:46:03.829Z,93156.94
2023-04-01T11:49:28.296Z,93161.72
2023-04-01T11:52:20.531Z,93165.06
2023-04-01T11:55:21.994Z,93172.09
2023-04-01T11:58:00.725Z,93172.88
2023-04-01T12:00:46.869Z,93181.28
2023-04-01T12:03:31.742Z,93162.31
2023-04-01T12:06:24.997Z,93170.38
2023-04-01T12:09:20.937Z,93175.13
2023-04-01T12:12:09.398Z,93166.03
2023-04-01T12:15:09.521Z,93174.22
2023-04-01T12:17:53.231Z,93169.88
2023-04-01T12:20:38.748Z,93165.47
2023-04-01T12:23:33.153Z,93174.63
2023-04-01T12:26:13.458Z,93170.31
2023-04-01T12:29:04.493Z,93178.16
2023-04-01T12:31:57.678Z,93166.31
2023-04-01T12:34:40.405Z,93161.91
2023-04-01T12:37:34.736Z,93161.22
2023-04-01T12:40:17.567Z,93166.94
2023-04-01T12:43:09.000Z,93153.00
2023-04-01T12:45:38.557Z,93160.75
2023-04-01T12:48:17.340Z,93161.91
2023-04-01T12:51:10.416Z,93164.69
2023-04-01T12:53:58.797Z,93170.47
2023-04-01T12:56:50.715Z,93165.34
2023-04-01T12:59:36.026Z,93167.38
2023-04-01T13:02:09.578Z,93175.88
2023-04-01T13:04:42.337Z,93164.19
2023-04-01T13:07:30.771Z,93172.25
2023-04-01T13:10:15.356Z,93165.22
2023-04-01T13:13:10.124Z,93175.50
2023-04-01T13:15:47.431Z,93170.44
2023-04-01T13:18:29.451Z,93183.06
2023-04-01T13:21:14.819Z,93175.88
2023-04-01T13:23:47.558Z,93180.78
2023-04-01T13:26:26.689Z,93181.53
2023-04-01T13:29:14.932Z,93179.56
2023-04-01T13:31:53.723Z,93172.72
2023-04-01T13:34:23.394Z,93167.63
2023-04-01T13:37:11.815Z,93169.16
2023-04-01T13:39:47.725Z,93179.66
2023-04-01T13:42:29.482Z,93164.00
2023-04-01T13:45:05.364Z,93170.25
2023-04-01T13:47:57.253Z,93173.25
2023-04-01T13:50:26.933Z,93177.44
2023-04-01T13:53:13.496Z,93178.69
2023-04-01T13:56:04.556Z,93176.50
2023-04-01T13:58:57.112Z,93170.88
2023-04-01T14:01:41.985Z,93179.56
2023-04-01T14:04:20.815Z,93187.47
2023-04-01T14:06:47.515Z,93173.44
2023-04-01T14:09:27.374Z,93178.44
2023-04-01T14:12:06.255Z,93179.50
2023-04-01T14:14:45.524Z,93180.44
2023-04-01T14:17:28.246Z,93171.31
2023-04-01T14:20:04.798Z,93186.97
2023-04-01T14:22:42.670Z,93183.22
2023-04-01T14:25:49.054Z,93174.28
2023-04-01T14:28:27.813Z,93188.63
2023-04-01T14:31:24.696Z,93189.81
2023-04-01T14:34:10.045Z,93188.06
2023-04-01T14:36:53.064Z,93187.38
2023-04-01T14:39:53.623Z,93191.22
2023-04-01T14:42:29.252Z,93192.03
2023-04-01T14:45:20.295Z,93195.50
2023-04-01T14:48:05.472Z,93190.75
2023-04-01T14:50:45.681Z,93196.31
2023-04-01T14:53:24.761Z,93191.59
2023-04-01T14:56:03.854Z,93198.50
2023-04-01T14:58:58.140Z,93200.00
2023-04-01T15:01:53.039Z,93196.88
2023-04-01T15:04:51.595Z,93184.38
2023-04-01T15:07:30.840Z,93193.41
2023-04-01T15:10:20.876Z,93198.47
2023-04-01T15:13:06.296Z,93194.16
2023-04-01T15:15:36.485Z,93197.13
2023-04-01T15:18:17.783Z,93181.47
2023-04-01T15:21:19.891Z,93181.16
2023-04-01T15:23:49.534Z,93186.09
2023-04-01T15:26:29.236Z,93182.28
2023-04-01T15:29:25.037Z,93183.84
2023-04-01T15:32:03.847Z,93183.09
2023-04-01T15:34:46.443Z,93182.78
2023-04-01T15:37:24.040Z,93194.16
2023-04-01T15:40:03.033Z,93196.13
2023-04-01T15:43:01.233Z,93195.88
2023-04-01T15:45:59.693Z,93196.50
2023-04-01T15:48:49.304Z,93204.69
2023-04-01T15:51:32.520Z,93209.78
2023-04-01T15:54:17.415Z,93210.44
2023-04-01T15:57:17.800Z,93209.53
2023-04-01T16:00:03.277Z,93215.78
2023-04-01T16:02:48.817Z,93199.84
2023-04-01T16:05:50.693Z,93200.16
2023-04-01T16:08:51.144Z,93206.75
2023-04-01T16:11:47.282Z,93202.25
2023-04-01T16:14:32.728Z,93202.44
2023-04-01T16:17:21.808Z,93215.16
2023-04-01T16:20:08.818Z,93209.75
2023-04-01T16:22:41.009Z,93223.06
2023-04-01T16:25:44.824Z,93217.94
2023-04-01T16:28:36.486Z,93220.66
2023-04-01T16:31:12.358Z,93219.78
2023-04-01T16:33:52.054Z,93218.88
2023-04-01T16:36:30.037Z,93211.03
2023-04-01T16:39:08.734Z,93211.50
2023-04-01T16:41:50.233Z,93216.66
2023-04-01T16:45:15.770Z,93220.63
2023-04-01T16:47:51.073Z,93233.00
2023-04-01T16:50:24.201Z,93221.00
2023-04-01T16:53:16.771Z,93232.34
2023-04-01T16:56:07.877Z,93242.22
2023-04-01T16:58:49.382Z,93246.88
2023-04-01T17:01:24.115Z,93247.72
2023-04-01T17:03:58.373Z,93241.84
2023-04-01T17:06:38.437Z,93245.09
2023-04-01T17:09:27.239Z,93240.44
2023-04-01T17:12:20.248Z,93251.38
2023-04-01T17:15:03.173Z,93240.75
2023-04-01T17:17:29.835Z,93238.44
2023-04-01T17:20:14.062Z,93249.41
2023-04-01T17:23:18.893Z,93249.88
2023-04-01T17:25:48.677Z,93254.63
2023-04-01T17:28:37.181Z,93252.69
2023-04-01T17:31:22.440Z,93262.09
2023-04-01T17:34:03.682Z,93266.84
2023-04-01T17:36:41.988Z,93267.28
2023-04-01T17:39:14.578Z,93279.75
2023-04-01T17:42:02.717Z,93279.38
2023-04-01T17:44:38.486Z,93290.28
2023-04-01T17:47:23.798Z,93299.63
2023-04-01T17:50:04.196Z,93289.50
2023-04-01T17:53:05.661Z,93300.03
2023-04-01T17:55:41.526Z,93300.78
2023-04-01T17:58:34.348Z,93297.72
2023-04-01T18:01:18.546Z,93302.78
2023-04-01T18:04:22.886Z,93304.34
2023-04-01T18:07:17.548Z,93300.84
2023-04-01T18:10:03.896Z,93299.69
2023-04-01T18:12:52.233Z,93303.25
2023-04-01T18:15:29.460Z,93300.19
2023-04-01T18:18:12.091Z,93306.00
2023-04-01T18:20:53.180Z,93298.97
2023-04-01T18:23:36.530Z,93298.59
2023-04-01T18:26:09.320Z,93306.38
2023-04-01T18:28:50.906Z,93313.00
2023-04-01T18:31:22.218Z,93309.13
2023-04-01T18:33:55.969Z,93305.63
2023-04-01T18:36:52.912Z,93305.66
2023-04-01T18:39:41.535Z,93313.41
2023-04-01T18:42:26.307Z,93324.28
2023-04-01T18:45:15.919Z,93321.56
2023-04-01T18:47:49.170Z,93326.59
2023-04-01T18:50:44.797Z,93330.47
2023-04-01T18:53:40.555Z,93338.63
2023-04-01T18:56:27.559Z,93346.41
2023-04-01T18:59:04.329Z,93348.72
2023-04-01T19:01:58.293Z,93344.06
2023-04-01T19:04:29.378Z,93351.84
2023-04-01T19:06:58.747Z,93351.44
2023-04-01T19:09:27.773Z,93361.91
2023-04-01T19:12:09.056Z,93361.13
2023-04-01T19:14:44.956Z,93361.50
2023-04-01T19:17:56.724Z,93368.13
2023-04-01T19:20:32.724Z,93374.31
2023-04-01T19:23:37.311Z,93366.97
2023-04-01T19:26:16.171Z,93371.22
2023-04-01T19:29:10.573Z,93374.72
2023-04-01T19:31:40.648Z,93370.84
2023-04-01T19:34:31.130Z,93376.63
2023-04-01T19:37:09.878Z,93373.16
2023-04-01T19:39:43.281Z,93377.81
2023-04-01T19:42:25.076Z,93373.56
2023-04-01T19:45:10.377Z,93379.38
2023-04-01T19:47:40.164Z,93382.47
2023-04-01T19:50:27.515Z,93382.47
2023-04-01T19:53:00.279Z,93373.53
2023-04-01T19:55:27.136Z,93386.31
2023-04-01T19:58:10.839Z,93384.75
2023-04-01T20:00:49.860Z,93386.31
2023-04-01T20:03:54.321Z,93385.16
2023-04-01T20:06:41.135Z,93382.06
2023-04-01T20:09:32.532Z,93392.50
2023-04-01T20:12:17.613Z,93396.41
2023-04-01T20:14:58.149Z,93396.78
2023-04-01T20:17:44.202Z,93394.84
2023-04-01T20:20:11.005Z,93390.59
2023-04-01T20:22:46.847Z,93402.22
2023-04-01T20:25:18.965Z,93403.00
2023-04-01T20:27:51.247Z,93407.66
2023-04-01T20:30:37.008Z,93402.22
2023-04-01T20:33:44.533Z,93414.22
2023-04-01T20:37:02.756Z,93418.50
2023-04-01T20:39:54.075Z,93417.72
2023-04-01T20:42:23.910Z,93420.44
2023-04-01T20:45:28.826Z,93420.84
2023-04-01T20:48:12.803Z,93425.09
2023-04-01T20:50:56.547Z,93424.75
2023-04-01T20:53:26.339Z,93430.16
2023-04-01T20:56:14.849Z,93432.50
2023-04-01T20:59:02.808Z,93430.16
2023-04-01T21:01:55.838Z,93437.16
2023-04-01T21:04:42.738Z,93441.81
2023-04-01T21:07:09.367Z,93438.34
2023-04-01T21:10:08.407Z,93443.00
2023-04-01T21:12:51.995Z,93446.09
2023-04-01T21:15:56.260Z,93456.63
2023-04-01T21:18:41.910Z,93460.84
2023-04-01T21:21:44.132Z,93467.84
2023-04-01T21:24:13.700Z,93473.28
2023-04-01T21:27:25.327Z,93479.50
2023-04-01T21:30:23.098Z,93480.69
2023-04-01T21:33:08.162Z,93476.00
2023-04-01T21:36:13.742Z,93474.41
2023-04-01T21:39:08.322Z,93470.94
2023-04-01T21:42:04.292Z,93477.94
2023-04-01T21:44:33.854Z,93484.94
2023-04-01T21:47:35.478Z,93485.69
2023-04-01T21:50:24.110Z,93487.25
2023-04-01T21:53:19.693Z,93496.16
2023-04-01T21:56:15.432Z,93499.25
2023-04-01T21:59:14.962Z,93502.72
2023-04-01T22:02:00.031Z,93504.28
2023-04-01T22:04:35.680Z,93498.09
2023-04-01T22:07:40.779Z,93493.41
2023-04-01T22:10:38.766Z,93499.22
2023-04-01T22:13:14.614Z,93498.81
2023-04-01T22:15:53.356Z,93505.78
2023-04-01T22:18:30.004Z,93497.63
2023-04-01T22:21:06.301Z,93502.69
2023-04-01T22:24:09.354Z,93489.13
2023-04-01T22:27:18.144Z,93505.03
2023-04-01T22:30:08.809Z,93508.53
2023-04-01T22:32:46.135Z,93505.41
2023-04-01T22:35:18.866Z,93506.97
2023-04-01T22:37:58.547Z,93512.38
2023-04-01T22:40:43.438Z,93509.69
2023-04-01T22:43:21.195Z,93510.84
2023-04-01T22:46:25.588Z,93518.97
2023-04-01T22:48:59.526Z,93517.38
2023-04-01T22:51:45.760Z,93521.31
2023-04-01T22:54:23.051Z,93530.22
2023-04-01T22:56:58.636Z,93522.84
2023-04-01T22:59:36.081Z,93521.34
2023-04-01T23:02:19.551Z,93515.53
2023-04-01T23:04:53.533Z,93515.91
2023-04-01T23:08:02.964Z,93526.78
2023-04-01T23:10:40.837Z,93536.09
2023-04-01T23:13:15.581Z,93529.53
2023-04-01T23:15:43.092Z,93533.00
2023-04-01T23:18:18.839Z,93535.31
2023-04-01T23:20:56.014Z,93535.31
2023-04-01T23:23:40.399Z,93529.53
2023-04-01T23:26:22.310Z,93533.00
2023-04-01T23:28:48.852Z,93543.13
2023-04-01T23:31:43.088Z,93532.25
2023-04-01T23:34:12.805Z,93541.97
2023-04-01T23:36:47.115Z,93540.41
2023-04-01T23:39:22.872Z,93540.00
2023-04-01T23:41:49.933Z,93534.59
2023-04-01T23:44:17.323Z,93540.44
2023-04-01T23:46:47.366Z,93536.91
2023-04-01T23:49:24.082Z,93533.84
2023-04-01T23:51:58.899Z,93538.88
2023-04-01T23:54:42.903Z,93543.91
2023-04-01T23:57:17.192Z,93550.50
2023-04-01T23:59:44.039Z,93538.09
